sensor_id;sensor_type;location;lat;lon;timestamp;P1;durP1;ratioP1;P2;durP2;ratioP2
64401;SDS011;50724;42.376;23.768;2023-02-21T06:19:48;3.03;;;1.42;;
64401;SDS011;50724;42.376;23.768;2023-02-21T06:22:57;3.10;;;1.40;;
64401;SDS011;50724;42.376;23.768;2023-02-21T06:25:58;3.53;;;1.60;;
64401;SDS011;50724;42.376;23.768;2023-02-21T06:28:58;4.93;;;1.95;;
64401;SDS011;50724;42.376;23.768;2023-02-21T06:31:59;2.72;;;1.13;;
64401;SDS011;50724;42.376;23.768;2023-02-21T06:35:00;3.78;;;1.45;;
64401;SDS011;50724;42.376;23.768;2023-02-21T06:38:01;4.38;;;1.70;;
64401;SDS011;50724;42.376;23.768;2023-02-21T06:41:05;4.45;;;1.63;;
64401;SDS011;50724;42.376;23.768;2023-02-21T06:44:07;3.15;;;1.45;;
64401;SDS011;50724;42.376;23.768;2023-02-21T06:47:07;2.78;;;1.40;;
64401;SDS011;50724;42.376;23.768;2023-02-21T06:50:07;3.20;;;1.50;;
64401;SDS011;50724;42.376;23.768;2023-02-21T06:53:08;3.95;;;1.52;;
64401;SDS011;50724;42.376;23.768;2023-02-21T06:56:09;2.80;;;1.30;;
64401;SDS011;50724;42.376;23.768;2023-02-21T06:59:10;4.65;;;1.45;;
64401;SDS011;50724;42.376;23.768;2023-02-21T07:02:15;3.92;;;1.52;;
64401;SDS011;50724;42.376;23.768;2023-02-21T07:05:18;2.40;;;1.17;;
64401;SDS011;50724;42.376;23.768;2023-02-21T07:08:18;3.47;;;1.33;;
64401;SDS011;50724;42.376;23.768;2023-02-21T07:11:19;4.53;;;1.58;;
64401;SDS011;50724;42.376;23.768;2023-02-21T07:14:20;3.95;;;1.50;;
64401;SDS011;50724;42.376;23.768;2023-02-21T07:17:20;2.42;;;1.38;;
64401;SDS011;50724;42.376;23.768;2023-02-21T07:20:20;8.45;;;1.70;;
64401;SDS011;50724;42.376;23.768;2023-02-21T07:23:21;3.35;;;1.65;;
64401;SDS011;50724;42.376;23.768;2023-02-21T07:26:21;3.35;;;1.40;;
64401;SDS011;50724;42.376;23.768;2023-02-21T07:29:22;2.90;;;1.40;;
64401;SDS011;50724;42.376;23.768;2023-02-21T07:32:23;4.15;;;1.38;;
64401;SDS011;50724;42.376;23.768;2023-02-21T07:35:23;5.25;;;1.30;;
64401;SDS011;50724;42.376;23.768;2023-02-21T07:38:25;3.05;;;1.35;;
64401;SDS011;50724;42.376;23.768;2023-02-21T07:41:27;3.83;;;1.63;;
64401;SDS011;50724;42.376;23.768;2023-02-21T07:44:28;3.10;;;1.30;;
64401;SDS011;50724;42.376;23.768;2023-02-21T07:47:28;2.55;;;0.98;;
64401;SDS011;50724;42.376;23.768;2023-02-21T07:50:29;3.90;;;1.48;;
64401;SDS011;50724;42.376;23.768;2023-02-21T07:53:29;3.72;;;1.30;;
64401;SDS011;50724;42.376;23.768;2023-02-21T07:56:29;3.75;;;1.73;;
64401;SDS011;50724;42.376;23.768;2023-02-21T07:59:30;2.45;;;1.35;;
64401;SDS011;50724;42.376;23.768;2023-02-21T08:02:30;3.60;;;1.50;;
64401;SDS011;50724;42.376;23.768;2023-02-21T08:05:31;5.93;;;1.48;;
64401;SDS011;50724;42.376;23.768;2023-02-21T08:08:32;2.40;;;1.25;;
64401;SDS011;50724;42.376;23.768;2023-02-21T08:11:32;2.78;;;1.20;;
64401;SDS011;50724;42.376;23.768;2023-02-21T08:14:35;2.10;;;1.02;;
64401;SDS011;50724;42.376;23.768;2023-02-21T08:17:36;3.05;;;1.10;;
64401;SDS011;50724;42.376;23.768;2023-02-21T08:20:36;3.13;;;1.42;;
64401;SDS011;50724;42.376;23.768;2023-02-21T08:23:36;1.95;;;1.30;;
64401;SDS011;50724;42.376;23.768;2023-02-21T08:26:46;3.33;;;1.15;;
64401;SDS011;50724;42.376;23.768;2023-02-21T08:29:48;2.75;;;1.10;;
64401;SDS011;50724;42.376;23.768;2023-02-21T08:32:49;2.33;;;1.10;;
64401;SDS011;50724;42.376;23.768;2023-02-21T08:35:50;2.20;;;1.00;;
64401;SDS011;50724;42.376;23.768;2023-02-21T08:38:50;1.80;;;1.08;;
64401;SDS011;50724;42.376;23.768;2023-02-21T08:41:51;2.58;;;1.17;;
64401;SDS011;50724;42.376;23.768;2023-02-21T08:44:51;1.85;;;1.02;;
64401;SDS011;50724;42.376;23.768;2023-02-21T08:47:52;3.15;;;1.00;;
64401;SDS011;50724;42.376;23.768;2023-02-21T08:50:53;2.38;;;1.00;;
64401;SDS011;50724;42.376;23.768;2023-02-21T08:53:54;3.03;;;1.23;;
64401;SDS011;50724;42.376;23.768;2023-02-21T08:56:54;2.45;;;1.10;;
64401;SDS011;50724;42.376;23.768;2023-02-21T08:59:55;2.40;;;1.05;;
64401;SDS011;50724;42.376;23.768;2023-02-21T09:02:56;2.95;;;1.20;;
64401;SDS011;50724;42.376;23.768;2023-02-21T09:05:57;2.55;;;1.15;;
64401;SDS011;50724;42.376;23.768;2023-02-21T09:08:58;2.95;;;1.30;;
64401;SDS011;50724;42.376;23.768;2023-02-21T09:11:59;2.08;;;0.90;;
64401;SDS011;50724;42.376;23.768;2023-02-21T09:14:59;2.97;;;1.40;;
64401;SDS011;50724;42.376;23.768;2023-02-21T09:18:00;1.43;;;0.80;;
64401;SDS011;50724;42.376;23.768;2023-02-21T09:21:00;2.97;;;0.90;;
64401;SDS011;50724;42.376;23.768;2023-02-21T09:24:01;1.83;;;0.93;;
64401;SDS011;50724;42.376;23.768;2023-02-21T09:27:02;1.60;;;0.82;;
64401;SDS011;50724;42.376;23.768;2023-02-21T09:30:14;1.95;;;1.00;;
64401;SDS011;50724;42.376;23.768;2023-02-21T09:33:17;1.95;;;1.00;;
64401;SDS011;50724;42.376;23.768;2023-02-21T09:36:18;3.60;;;1.00;;
64401;SDS011;50724;42.376;23.768;2023-02-21T09:39:23;1.80;;;0.85;;
64401;SDS011;50724;42.376;23.768;2023-02-21T09:42:26;1.35;;;0.80;;
64401;SDS011;50724;42.376;23.768;2023-02-21T09:45:30;2.05;;;0.90;;
64401;SDS011;50724;42.376;23.768;2023-02-21T09:48:32;2.90;;;1.25;;
64401;SDS011;50724;42.376;23.768;2023-02-21T09:51:32;6.40;;;1.00;;
64401;SDS011;50724;42.376;23.768;2023-02-21T09:54:38;1.38;;;0.70;;
64401;SDS011;50724;42.376;23.768;2023-02-21T09:57:42;5.43;;;1.00;;
64401;SDS011;50724;42.376;23.768;2023-02-21T10:00:42;2.28;;;0.90;;
64401;SDS011;50724;42.376;23.768;2023-02-21T10:03:44;1.80;;;1.10;;
64401;SDS011;50724;42.376;23.768;2023-02-21T10:09:58;1.52;;;0.80;;
64401;SDS011;50724;42.376;23.768;2023-02-21T10:13:34;1.38;;;0.77;;
64401;SDS011;50724;42.376;23.768;2023-02-21T10:19:48;1.13;;;0.63;;
64401;SDS011;50724;42.376;23.768;2023-02-21T10:22:52;0.95;;;0.60;;
64401;SDS011;50724;42.376;23.768;2023-02-21T10:25:56;1.45;;;0.80;;
64401;SDS011;50724;42.376;23.768;2023-02-21T10:29:01;2.70;;;0.80;;
64401;SDS011;50724;42.376;23.768;2023-02-21T10:32:05;1.90;;;1.00;;
64401;SDS011;50724;42.376;23.768;2023-02-21T10:35:07;1.00;;;0.70;;
64401;SDS011;50724;42.376;23.768;2023-02-21T10:38:09;2.08;;;1.05;;
64401;SDS011;50724;42.376;23.768;2023-02-21T10:41:12;2.45;;;1.00;;
64401;SDS011;50724;42.376;23.768;2023-02-21T10:57:24;2.20;;;0.73;;
64401;SDS011;50724;42.376;23.768;2023-02-21T11:00:39;2.38;;;1.00;;
64401;SDS011;50724;42.376;23.768;2023-02-21T11:03:48;1.77;;;0.93;;
64401;SDS011;50724;42.376;23.768;2023-02-21T11:07:04;3.53;;;0.88;;
64401;SDS011;50724;42.376;23.768;2023-02-21T11:10:27;1.23;;;0.68;;
64401;SDS011;50724;42.376;23.768;2023-02-21T11:13:33;2.05;;;0.90;;
64401;SDS011;50724;42.376;23.768;2023-02-21T11:16:35;1.45;;;0.80;;
64401;SDS011;50724;42.376;23.768;2023-02-21T11:22:50;1.30;;;0.77;;
64401;SDS011;50724;42.376;23.768;2023-02-21T11:25:55;1.80;;;0.80;;
64401;SDS011;50724;42.376;23.768;2023-02-21T11:29:09;1.85;;;0.90;;
64401;SDS011;50724;42.376;23.768;2023-02-21T11:32:18;2.15;;;0.90;;
64401;SDS011;50724;42.376;23.768;2023-02-21T11:35:31;1.52;;;1.00;;
64401;SDS011;50724;42.376;23.768;2023-02-21T11:41:49;1.98;;;0.82;;
64401;SDS011;50724;42.376;23.768;2023-02-21T11:45:11;1.88;;;0.90;;
64401;SDS011;50724;42.376;23.768;2023-02-21T11:48:20;2.33;;;1.10;;
64401;SDS011;50724;42.376;23.768;2023-02-21T11:51:35;3.45;;;1.20;;
64401;SDS011;50724;42.376;23.768;2023-02-21T11:54:39;2.72;;;0.90;;
64401;SDS011;50724;42.376;23.768;2023-02-21T11:57:46;1.70;;;0.75;;
64401;SDS011;50724;42.376;23.768;2023-02-21T12:00:54;2.63;;;1.02;;
64401;SDS011;50724;42.376;23.768;2023-02-21T12:33:54;2.05;;;1.00;;
64401;SDS011;50724;42.376;23.768;2023-02-21T12:40:46;2.08;;;1.00;;
64401;SDS011;50724;42.376;23.768;2023-02-21T12:44:14;2.15;;;1.00;;
64401;SDS011;50724;42.376;23.768;2023-02-21T12:47:19;3.35;;;1.10;;
64401;SDS011;50724;42.376;23.768;2023-02-21T12:50:27;3.45;;;1.20;;
64401;SDS011;50724;42.376;23.768;2023-02-21T12:53:34;2.95;;;1.20;;
64401;SDS011;50724;42.376;23.768;2023-02-21T13:00:11;4.88;;;1.20;;
64401;SDS011;50724;42.376;23.768;2023-02-21T13:06:44;1.65;;;1.00;;
64401;SDS011;50724;42.376;23.768;2023-02-21T13:09:49;2.38;;;1.30;;
64401;SDS011;50724;42.376;23.768;2023-02-21T13:13:00;3.40;;;1.10;;
64401;SDS011;50724;42.376;23.768;2023-02-21T13:16:08;3.28;;;1.20;;
64401;SDS011;50724;42.376;23.768;2023-02-21T13:19:11;2.22;;;0.90;;
64401;SDS011;50724;42.376;23.768;2023-02-21T13:32:36;2.10;;;1.10;;
64401;SDS011;50724;42.376;23.768;2023-02-21T13:35:38;2.55;;;0.93;;
64401;SDS011;50724;42.376;23.768;2023-02-21T13:38:39;1.73;;;0.88;;
64401;SDS011;50724;42.376;23.768;2023-02-21T13:41:41;1.75;;;0.98;;
64401;SDS011;50724;42.376;23.768;2023-02-21T13:44:49;2.17;;;1.10;;
64401;SDS011;50724;42.376;23.768;2023-02-21T13:50:53;2.27;;;0.90;;
64401;SDS011;50724;42.376;23.768;2023-02-21T13:54:09;1.35;;;0.82;;
64401;SDS011;50724;42.376;23.768;2023-02-21T13:57:27;2.35;;;1.10;;
64401;SDS011;50724;42.376;23.768;2023-02-21T14:03:32;2.13;;;1.10;;
64401;SDS011;50724;42.376;23.768;2023-02-21T14:06:34;2.42;;;0.90;;
64401;SDS011;50724;42.376;23.768;2023-02-21T14:09:38;1.95;;;0.98;;
64401;SDS011;50724;42.376;23.768;2023-02-21T14:12:43;3.33;;;1.25;;
64401;SDS011;50724;42.376;23.768;2023-02-21T14:15:45;2.65;;;1.20;;
64401;SDS011;50724;42.376;23.768;2023-02-21T14:25:23;2.45;;;1.30;;
64401;SDS011;50724;42.376;23.768;2023-02-21T14:38:24;3.17;;;1.30;;
64401;SDS011;50724;42.376;23.768;2023-02-21T14:55:07;2.15;;;1.02;;
64401;SDS011;50724;42.376;23.768;2023-02-21T15:08:29;4.63;;;1.40;;
64401;SDS011;50724;42.376;23.768;2023-02-21T15:11:40;3.08;;;1.13;;
64401;SDS011;50724;42.376;23.768;2023-02-21T15:14:46;4.13;;;1.40;;
64401;SDS011;50724;42.376;23.768;2023-02-21T15:17:57;2.55;;;1.00;;
64401;SDS011;50724;42.376;23.768;2023-02-21T15:24:13;2.13;;;0.93;;
64401;SDS011;50724;42.376;23.768;2023-02-21T15:27:15;2.63;;;1.17;;
64401;SDS011;50724;42.376;23.768;2023-02-21T15:33:24;2.13;;;1.25;;
64401;SDS011;50724;42.376;23.768;2023-02-21T15:36:26;6.60;;;1.20;;
64401;SDS011;50724;42.376;23.768;2023-02-21T15:39:30;4.25;;;1.30;;
64401;SDS011;50724;42.376;23.768;2023-02-21T15:42:33;2.72;;;1.30;;
64401;SDS011;50724;42.376;23.768;2023-02-21T15:45:42;2.75;;;1.00;;
64401;SDS011;50724;42.376;23.768;2023-02-21T15:48:45;4.15;;;1.20;;
64401;SDS011;50724;42.376;23.768;2023-02-21T15:51:46;2.65;;;1.10;;
64401;SDS011;50724;42.376;23.768;2023-02-21T15:54:47;2.20;;;1.13;;
64401;SDS011;50724;42.376;23.768;2023-02-21T16:04:19;4.13;;;1.35;;
64401;SDS011;50724;42.376;23.768;2023-02-21T16:07:24;3.72;;;1.33;;
64401;SDS011;50724;42.376;23.768;2023-02-21T16:10:34;4.10;;;1.42;;
64401;SDS011;50724;42.376;23.768;2023-02-21T16:13:37;3.30;;;1.30;;
64401;SDS011;50724;42.376;23.768;2023-02-21T16:16:39;5.20;;;1.60;;
64401;SDS011;50724;42.376;23.768;2023-02-21T16:19:41;4.18;;;1.42;;
64401;SDS011;50724;42.376;23.768;2023-02-21T16:22:48;4.45;;;1.33;;
64401;SDS011;50724;42.376;23.768;2023-02-21T16:25:54;2.88;;;1.30;;
64401;SDS011;50724;42.376;23.768;2023-02-21T16:28:55;4.60;;;1.60;;
64401;SDS011;50724;42.376;23.768;2023-02-21T16:31:58;4.03;;;1.48;;
64401;SDS011;50724;42.376;23.768;2023-02-21T16:34:59;7.03;;;1.85;;
64401;SDS011;50724;42.376;23.768;2023-02-21T16:38:00;3.00;;;1.23;;
64401;SDS011;50724;42.376;23.768;2023-02-21T16:41:01;4.07;;;1.20;;
64401;SDS011;50724;42.376;23.768;2023-02-21T16:44:02;2.35;;;1.20;;
64401;SDS011;50724;42.376;23.768;2023-02-21T16:47:02;5.22;;;1.63;;
64401;SDS011;50724;42.376;23.768;2023-02-21T16:50:03;3.75;;;1.30;;
64401;SDS011;50724;42.376;23.768;2023-02-21T16:53:04;3.80;;;1.38;;
64401;SDS011;50724;42.376;23.768;2023-02-21T16:56:05;4.05;;;1.60;;
64401;SDS011;50724;42.376;23.768;2023-02-21T16:59:10;3.92;;;1.80;;
64401;SDS011;50724;42.376;23.768;2023-02-21T17:02:14;4.28;;;1.73;;
64401;SDS011;50724;42.376;23.768;2023-02-21T17:05:15;3.17;;;1.40;;
64401;SDS011;50724;42.376;23.768;2023-02-21T17:08:16;3.72;;;1.60;;
64401;SDS011;50724;42.376;23.768;2023-02-21T17:11:16;4.68;;;1.77;;
64401;SDS011;50724;42.376;23.768;2023-02-21T17:14:17;4.07;;;1.60;;
64401;SDS011;50724;42.376;23.768;2023-02-21T17:17:27;3.90;;;1.50;;
64401;SDS011;50724;42.376;23.768;2023-02-21T17:20:27;3.60;;;1.70;;
64401;SDS011;50724;42.376;23.768;2023-02-21T17:23:28;5.80;;;1.80;;
64401;SDS011;50724;42.376;23.768;2023-02-21T17:26:28;7.55;;;2.08;;
64401;SDS011;50724;42.376;23.768;2023-02-21T17:29:29;3.03;;;1.50;;
64401;SDS011;50724;42.376;23.768;2023-02-21T17:32:29;2.95;;;1.40;;
64401;SDS011;50724;42.376;23.768;2023-02-21T17:35:30;4.72;;;1.60;;
64401;SDS011;50724;42.376;23.768;2023-02-21T17:38:31;4.75;;;1.63;;
64401;SDS011;50724;42.376;23.768;2023-02-21T17:41:32;5.68;;;1.65;;
64401;SDS011;50724;42.376;23.768;2023-02-21T17:44:33;4.18;;;1.80;;
64401;SDS011;50724;42.376;23.768;2023-02-21T17:47:36;5.15;;;1.73;;
64401;SDS011;50724;42.376;23.768;2023-02-21T17:50:37;5.53;;;1.77;;
64401;SDS011;50724;42.376;23.768;2023-02-21T17:53:38;6.20;;;1.98;;
64401;SDS011;50724;42.376;23.768;2023-02-21T17:56:38;6.80;;;1.87;;
64401;SDS011;50724;42.376;23.768;2023-02-21T17:59:39;3.83;;;1.77;;
64401;SDS011;50724;42.376;23.768;2023-02-21T18:02:40;7.03;;;1.67;;
64401;SDS011;50724;42.376;23.768;2023-02-21T18:05:40;4.10;;;1.40;;
64401;SDS011;50724;42.376;23.768;2023-02-21T18:08:40;3.83;;;1.53;;
64401;SDS011;50724;42.376;23.768;2023-02-21T18:11:47;3.63;;;1.25;;
64401;SDS011;50724;42.376;23.768;2023-02-21T18:14:49;4.68;;;1.55;;
64401;SDS011;50724;42.376;23.768;2023-02-21T18:17:49;4.30;;;1.40;;
64401;SDS011;50724;42.376;23.768;2023-02-21T18:20:50;4.10;;;1.90;;
64401;SDS011;50724;42.376;23.768;2023-02-21T18:23:51;6.68;;;1.67;;
64401;SDS011;50724;42.376;23.768;2023-02-21T18:26:51;6.07;;;1.70;;
64401;SDS011;50724;42.376;23.768;2023-02-21T18:29:52;6.00;;;1.77;;
64401;SDS011;50724;42.376;23.768;2023-02-21T18:32:54;4.60;;;1.65;;
64401;SDS011;50724;42.376;23.768;2023-02-21T18:35:55;4.22;;;1.63;;
64401;SDS011;50724;42.376;23.768;2023-02-21T18:38:56;4.85;;;1.67;;
64401;SDS011;50724;42.376;23.768;2023-02-21T18:41:57;4.23;;;1.77;;
64401;SDS011;50724;42.376;23.768;2023-02-21T18:44:57;3.28;;;1.40;;
64401;SDS011;50724;42.376;23.768;2023-02-21T18:47:59;4.35;;;1.50;;
64401;SDS011;50724;42.376;23.768;2023-02-21T18:51:00;3.75;;;1.60;;
64401;SDS011;50724;42.376;23.768;2023-02-21T18:54:00;3.63;;;1.55;;
64401;SDS011;50724;42.376;23.768;2023-02-21T18:57:01;4.00;;;1.60;;
64401;SDS011;50724;42.376;23.768;2023-02-21T19:00:03;4.78;;;1.75;;
64401;SDS011;50724;42.376;23.768;2023-02-21T19:03:06;5.03;;;1.75;;
64401;SDS011;50724;42.376;23.768;2023-02-21T19:06:08;5.35;;;1.30;;
64401;SDS011;50724;42.376;23.768;2023-02-21T19:09:11;10.52;;;2.20;;
64401;SDS011;50724;42.376;23.768;2023-02-21T19:12:12;9.30;;;3.22;;
64401;SDS011;50724;42.376;23.768;2023-02-21T19:15:13;6.55;;;1.98;;
64401;SDS011;50724;42.376;23.768;2023-02-21T19:18:16;4.43;;;1.50;;
64401;SDS011;50724;42.376;23.768;2023-02-21T19:21:17;4.60;;;1.92;;
64401;SDS011;50724;42.376;23.768;2023-02-21T19:24:17;4.55;;;1.63;;
64401;SDS011;50724;42.376;23.768;2023-02-21T19:27:18;6.90;;;1.88;;
64401;SDS011;50724;42.376;23.768;2023-02-21T19:30:18;8.27;;;1.80;;
64401;SDS011;50724;42.376;23.768;2023-02-21T19:33:19;4.47;;;1.60;;
64401;SDS011;50724;42.376;23.768;2023-02-21T19:36:21;3.70;;;1.45;;
64401;SDS011;50724;42.376;23.768;2023-02-21T19:39:22;4.93;;;1.90;;
64401;SDS011;50724;42.376;23.768;2023-02-21T19:42:22;3.90;;;1.63;;
64401;SDS011;50724;42.376;23.768;2023-02-21T19:45:23;4.30;;;1.48;;
64401;SDS011;50724;42.376;23.768;2023-02-21T19:48:24;5.05;;;2.10;;
64401;SDS011;50724;42.376;23.768;2023-02-21T19:54:33;5.60;;;2.20;;
64401;SDS011;50724;42.376;23.768;2023-02-21T19:57:33;4.00;;;1.98;;
64401;SDS011;50724;42.376;23.768;2023-02-21T20:00:34;5.17;;;2.60;;
64401;SDS011;50724;42.376;23.768;2023-02-21T20:03:35;6.22;;;2.35;;
64401;SDS011;50724;42.376;23.768;2023-02-21T20:06:36;6.63;;;2.13;;
64401;SDS011;50724;42.376;23.768;2023-02-21T20:09:37;6.45;;;2.17;;
64401;SDS011;50724;42.376;23.768;2023-02-21T20:12:37;5.90;;;2.20;;
64401;SDS011;50724;42.376;23.768;2023-02-21T20:15:38;5.00;;;1.70;;
64401;SDS011;50724;42.376;23.768;2023-02-21T20:18:38;4.55;;;1.52;;
64401;SDS011;50724;42.376;23.768;2023-02-21T20:21:38;4.47;;;1.70;;
64401;SDS011;50724;42.376;23.768;2023-02-21T20:24:40;4.82;;;1.70;;
64401;SDS011;50724;42.376;23.768;2023-02-21T20:27:44;5.68;;;1.60;;
64401;SDS011;50724;42.376;23.768;2023-02-21T20:30:45;6.07;;;1.73;;
64401;SDS011;50724;42.376;23.768;2023-02-21T20:33:46;6.00;;;1.70;;
64401;SDS011;50724;42.376;23.768;2023-02-21T20:36:47;5.00;;;1.73;;
64401;SDS011;50724;42.376;23.768;2023-02-21T20:39:48;7.40;;;1.97;;
64401;SDS011;50724;42.376;23.768;2023-02-21T20:42:49;5.10;;;1.98;;
64401;SDS011;50724;42.376;23.768;2023-02-21T20:45:49;4.93;;;2.08;;
64401;SDS011;50724;42.376;23.768;2023-02-21T20:48:50;5.97;;;1.85;;
64401;SDS011;50724;42.376;23.768;2023-02-21T20:51:51;4.72;;;2.15;;
64401;SDS011;50724;42.376;23.768;2023-02-21T20:54:52;6.53;;;2.13;;
64401;SDS011;50724;42.376;23.768;2023-02-21T20:57:53;6.13;;;2.15;;
64401;SDS011;50724;42.376;23.768;2023-02-21T21:00:53;5.28;;;2.13;;
64401;SDS011;50724;42.376;23.768;2023-02-21T21:03:54;5.68;;;2.30;;
64401;SDS011;50724;42.376;23.768;2023-02-21T21:06:56;5.57;;;1.90;;
64401;SDS011;50724;42.376;23.768;2023-02-21T21:09:59;6.95;;;2.08;;
64401;SDS011;50724;42.376;23.768;2023-02-21T21:12:59;5.95;;;2.20;;
64401;SDS011;50724;42.376;23.768;2023-02-21T21:16:01;5.10;;;1.90;;
64401;SDS011;50724;42.376;23.768;2023-02-21T21:19:04;5.13;;;2.03;;
64401;SDS011;50724;42.376;23.768;2023-02-21T21:22:06;6.03;;;2.00;;
64401;SDS011;50724;42.376;23.768;2023-02-21T21:25:08;8.75;;;2.40;;
64401;SDS011;50724;42.376;23.768;2023-02-21T21:28:09;8.68;;;2.15;;
64401;SDS011;50724;42.376;23.768;2023-02-21T21:31:12;5.50;;;2.40;;
64401;SDS011;50724;42.376;23.768;2023-02-21T21:34:12;4.65;;;1.98;;
64401;SDS011;50724;42.376;23.768;2023-02-21T21:37:13;5.15;;;2.17;;
64401;SDS011;50724;42.376;23.768;2023-02-21T21:40:15;6.45;;;2.30;;
64401;SDS011;50724;42.376;23.768;2023-02-21T21:43:16;8.30;;;2.20;;
64401;SDS011;50724;42.376;23.768;2023-02-21T21:46:17;7.63;;;2.20;;
64401;SDS011;50724;42.376;23.768;2023-02-21T21:49:20;8.63;;;2.85;;
64401;SDS011;50724;42.376;23.768;2023-02-21T21:52:21;4.38;;;1.80;;
64401;SDS011;50724;42.376;23.768;2023-02-21T21:55:24;5.13;;;1.85;;
64401;SDS011;50724;42.376;23.768;2023-02-21T21:58:26;7.45;;;2.60;;
64401;SDS011;50724;42.376;23.768;2023-02-21T22:01:27;5.03;;;2.17;;
64401;SDS011;50724;42.376;23.768;2023-02-21T22:04:28;3.80;;;1.48;;
64401;SDS011;50724;42.376;23.768;2023-02-21T22:07:29;6.25;;;2.70;;
64401;SDS011;50724;42.376;23.768;2023-02-21T22:10:32;9.23;;;2.65;;
64401;SDS011;50724;42.376;23.768;2023-02-21T22:13:32;5.47;;;1.95;;
64401;SDS011;50724;42.376;23.768;2023-02-21T22:16:34;8.97;;;2.33;;
64401;SDS011;50724;42.376;23.768;2023-02-21T22:19:35;5.43;;;2.35;;
64401;SDS011;50724;42.376;23.768;2023-02-21T22:22:35;5.97;;;2.70;;
64401;SDS011;50724;42.376;23.768;2023-02-21T22:25:36;5.83;;;2.43;;
64401;SDS011;50724;42.376;23.768;2023-02-21T22:28:36;5.70;;;2.53;;
64401;SDS011;50724;42.376;23.768;2023-02-21T22:31:37;7.47;;;2.58;;
64401;SDS011;50724;42.376;23.768;2023-02-21T22:34:37;6.03;;;2.23;;
64401;SDS011;50724;42.376;23.768;2023-02-21T22:37:38;5.60;;;2.38;;
64401;SDS011;50724;42.376;23.768;2023-02-21T22:40:42;7.00;;;1.80;;
64401;SDS011;50724;42.376;23.768;2023-02-21T22:43:49;6.70;;;2.00;;
64401;SDS011;50724;42.376;23.768;2023-02-21T22:46:50;9.18;;;2.40;;
64401;SDS011;50724;42.376;23.768;2023-02-21T22:49:57;5.75;;;1.98;;
64401;SDS011;50724;42.376;23.768;2023-02-21T22:52:58;6.93;;;2.13;;
64401;SDS011;50724;42.376;23.768;2023-02-21T22:56:02;4.50;;;2.03;;
64401;SDS011;50724;42.376;23.768;2023-02-21T22:59:07;7.10;;;2.80;;
64401;SDS011;50724;42.376;23.768;2023-02-21T23:02:07;6.93;;;2.50;;
64401;SDS011;50724;42.376;23.768;2023-02-21T23:05:07;8.13;;;2.80;;
64401;SDS011;50724;42.376;23.768;2023-02-21T23:08:09;5.78;;;2.30;;
64401;SDS011;50724;42.376;23.768;2023-02-21T23:11:21;6.32;;;2.40;;
64401;SDS011;50724;42.376;23.768;2023-02-21T23:14:25;7.07;;;2.67;;
64401;SDS011;50724;42.376;23.768;2023-02-21T23:17:27;6.15;;;2.40;;
64401;SDS011;50724;42.376;23.768;2023-02-21T23:20:27;5.30;;;2.40;;
64401;SDS011;50724;42.376;23.768;2023-02-21T23:23:28;4.95;;;1.90;;
64401;SDS011;50724;42.376;23.768;2023-02-21T23:26:29;5.82;;;2.35;;
64401;SDS011;50724;42.376;23.768;2023-02-21T23:29:29;5.50;;;2.28;;
64401;SDS011;50724;42.376;23.768;2023-02-21T23:32:30;6.30;;;2.60;;
64401;SDS011;50724;42.376;23.768;2023-02-21T23:35:30;7.77;;;2.20;;
64401;SDS011;50724;42.376;23.768;2023-02-21T23:38:31;8.02;;;2.47;;
64401;SDS011;50724;42.376;23.768;2023-02-21T23:41:37;5.60;;;2.15;;
64401;SDS011;50724;42.376;23.768;2023-02-21T23:44:39;6.47;;;2.67;;
64401;SDS011;50724;42.376;23.768;2023-02-21T23:47:40;5.57;;;1.97;;
64401;SDS011;50724;42.376;23.768;2023-02-21T23:50:44;4.82;;;1.92;;
64401;SDS011;50724;42.376;23.768;2023-02-21T23:53:46;6.63;;;2.17;;
64401;SDS011;50724;42.376;23.768;2023-02-21T23:56:47;7.70;;;2.25;;
64401;SDS011;50724;42.376;23.768;2023-02-21T23:59:47;6.07;;;2.30;;
